createdAt,value
2023-04-08T00:00:44.547Z,57.16
2023-04-08T00:03:11.249Z,57.26
2023-04-08T00:05:38.057Z,57.48
2023-04-08T00:08:04.662Z,58.10
2023-04-08T00:10:31.276Z,58.42
2023-04-08T00:12:57.869Z,58.39
2023-04-08T00:15:24.511Z,58.58
2023-04-08T00:17:51.214Z,58.53
2023-04-08T00:20:17.869Z,58.42
2023-04-08T00:22:44.477Z,58.51
2023-04-08T00:25:11.049Z,58.40
2023-04-08T00:27:37.805Z,58.52
2023-04-08T00:30:04.914Z,58.51
2023-04-08T00:32:31.475Z,58.33
2023-04-08T00:34:58.091Z,58.19
2023-04-08T00:37:24.747Z,58.24
2023-04-08T00:39:51.792Z,58.32
2023-04-08T00:42:18.410Z,58.20
2023-04-08T00:44:45.049Z,58.53
2023-04-08T00:47:15.005Z,59.29
2023-04-08T00:49:42.561Z,58.81
2023-04-08T00:52:09.275Z,59.22
2023-04-08T00:54:37.321Z,59.31
2023-04-08T00:57:05.550Z,59.80
2023-04-08T00:59:33.079Z,59.58
2023-04-08T01:02:07.908Z,61.93
2023-04-08T01:04:37.521Z,59.67
2023-04-08T01:07:25.311Z,61.75
2023-04-08T01:09:53.032Z,61.22
2023-04-08T01:12:27.338Z,61.79
2023-04-08T01:15:00.440Z,60.75
2023-04-08T01:17:27.640Z,60.88
2023-04-08T01:19:56.237Z,60.85
2023-04-08T01:22:34.579Z,62.23
2023-04-08T01:25:06.260Z,61.57
2023-04-08T01:27:33.232Z,61.21
2023-04-08T01:30:03.482Z,61.66
2023-04-08T01:32:32.107Z,61.07
2023-04-08T01:35:00.934Z,61.28
2023-04-08T01:37:30.434Z,61.12
2023-04-08T01:39:59.066Z,61.41
2023-04-08T01:42:28.722Z,61.82
2023-04-08T01:44:57.584Z,61.63
2023-04-08T01:47:25.830Z,61.25
2023-04-08T01:49:53.639Z,61.36
2023-04-08T01:52:21.963Z,61.68
2023-04-08T01:54:48.836Z,61.70
2023-04-08T01:57:23.628Z,63.12
2023-04-08T02:00:00.729Z,63.33
2023-04-08T02:02:28.331Z,61.63
2023-04-08T02:04:55.412Z,61.77
2023-04-08T02:07:22.450Z,62.41
2023-04-08T02:09:50.741Z,62.48
2023-04-08T02:12:17.480Z,65.04
2023-04-08T02:14:44.441Z,62.54
2023-04-08T02:17:21.332Z,64.18
2023-04-08T02:20:11.387Z,64.32
2023-04-08T02:22:44.830Z,63.35
2023-04-08T02:25:16.711Z,63.72
2023-04-08T02:27:45.771Z,62.76
2023-04-08T02:30:13.657Z,62.96
2023-04-08T02:32:42.031Z,62.86
2023-04-08T02:35:09.456Z,65.17
2023-04-08T02:37:36.534Z,62.63
2023-04-08T02:40:03.551Z,62.66
2023-04-08T02:42:30.536Z,62.72
2023-04-08T02:44:57.600Z,62.81
2023-04-08T02:47:24.399Z,62.85
2023-04-08T02:49:51.694Z,62.89
2023-04-08T02:52:19.088Z,63.04
2023-04-08T02:54:45.843Z,62.86
2023-04-08T02:57:12.405Z,62.48
2023-04-08T02:59:39.128Z,62.74
2023-04-08T03:02:05.895Z,62.61
2023-04-08T03:04:32.518Z,62.99
2023-04-08T03:06:59.075Z,63.06
2023-04-08T03:09:25.719Z,63.06
2023-04-08T03:11:52.366Z,62.73
2023-04-08T03:14:18.973Z,63.00
2023-04-08T03:16:45.583Z,62.54
2023-04-08T03:19:12.200Z,62.70
2023-04-08T03:21:39.066Z,62.78
2023-04-08T03:24:05.913Z,62.94
2023-04-08T03:26:32.567Z,63.03
2023-04-08T03:28:59.192Z,63.00
2023-04-08T03:31:26.269Z,62.53
2023-04-08T03:33:52.924Z,62.80
2023-04-08T03:36:19.589Z,62.88
2023-04-08T03:38:46.168Z,62.80
2023-04-08T03:41:12.888Z,62.61
2023-04-08T03:43:39.563Z,62.26
2023-04-08T03:46:06.212Z,62.17
2023-04-08T03:48:32.919Z,62.32
2023-04-08T03:50:59.557Z,62.12
2023-04-08T03:53:26.171Z,62.10
2023-04-08T03:55:52.745Z,62.10
2023-04-08T03:58:19.327Z,61.82
2023-04-08T04:00:45.935Z,61.83
2023-04-08T04:03:12.764Z,61.83
2023-04-08T04:05:40.422Z,61.96
2023-04-08T04:08:07.327Z,61.81
2023-04-08T04:10:33.967Z,61.97
2023-04-08T04:13:00.549Z,61.90
2023-04-08T04:15:27.457Z,62.04
2023-04-08T04:17:54.154Z,61.99
2023-04-08T04:20:20.991Z,62.04
2023-04-08T04:22:47.609Z,62.52
2023-04-08T04:25:14.203Z,62.41
2023-04-08T04:27:40.811Z,62.42
2023-04-08T04:30:08.104Z,62.46
2023-04-08T04:32:34.767Z,62.46
2023-04-08T04:35:01.612Z,62.38
2023-04-08T04:37:28.250Z,62.67
2023-04-08T04:39:54.791Z,62.81
2023-04-08T04:42:21.346Z,62.68
2023-04-08T04:44:48.002Z,62.73
2023-04-08T04:47:14.668Z,62.64
2023-04-08T04:49:41.259Z,62.66
2023-04-08T04:52:07.903Z,62.66
2023-04-08T04:54:34.497Z,62.61
2023-04-08T04:57:01.195Z,62.84
2023-04-08T04:59:27.836Z,62.95
2023-04-08T05:01:54.848Z,62.80
2023-04-08T05:04:21.569Z,62.79
2023-04-08T05:06:48.319Z,62.85
2023-04-08T05:09:14.943Z,62.91
2023-04-08T05:11:41.549Z,62.78
2023-04-08T05:14:08.129Z,62.90
2023-04-08T05:16:35.195Z,62.69
2023-04-08T05:19:04.584Z,62.87
2023-04-08T05:21:31.323Z,63.04
2023-04-08T05:23:58.085Z,62.55
2023-04-08T05:26:24.676Z,62.76
2023-04-08T05:28:51.703Z,62.87
2023-04-08T05:31:19.952Z,62.71
2023-04-08T05:33:47.043Z,62.87
2023-04-08T05:36:14.475Z,62.90
2023-04-08T05:38:41.763Z,62.79
2023-04-08T05:41:08.353Z,62.71
2023-04-08T05:43:35.642Z,62.67
2023-04-08T05:46:09.473Z,63.71
2023-04-08T05:48:36.465Z,62.86
2023-04-08T05:51:03.155Z,63.03
2023-04-08T05:53:29.805Z,62.95
2023-04-08T05:55:56.599Z,62.96
2023-04-08T05:58:23.295Z,62.95
2023-04-08T06:00:49.871Z,62.99
2023-04-08T06:03:19.719Z,63.23
2023-04-08T06:05:47.293Z,63.03
2023-04-08T06:08:13.911Z,63.12
2023-04-08T06:10:40.658Z,63.15
2023-04-08T06:13:07.655Z,63.24
2023-04-08T06:15:34.328Z,63.43
2023-04-08T06:18:00.970Z,63.06
2023-04-08T06:20:27.648Z,63.10
2023-04-08T06:22:54.368Z,63.13
2023-04-08T06:25:20.948Z,63.41
2023-04-08T06:27:47.581Z,63.41
2023-04-08T06:30:14.247Z,63.33
2023-04-08T06:32:40.915Z,63.14
2023-04-08T06:35:07.976Z,63.02
2023-04-08T06:37:34.641Z,63.42
2023-04-08T06:40:01.296Z,63.16
2023-04-08T06:42:27.856Z,63.10
2023-04-08T06:45:06.876Z,63.36
2023-04-08T06:47:33.642Z,63.78
2023-04-08T06:50:00.410Z,63.53
2023-04-08T06:52:27.015Z,63.52
2023-04-08T06:54:53.596Z,63.67
2023-04-08T06:57:20.147Z,63.67
2023-04-08T06:59:46.777Z,63.76
2023-04-08T07:02:13.577Z,63.40
2023-04-08T07:04:40.204Z,63.64
2023-04-08T07:07:06.950Z,63.57
2023-04-08T07:09:33.531Z,63.46
2023-04-08T07:12:00.129Z,62.77
2023-04-08T07:14:26.740Z,62.94
2023-04-08T07:16:53.342Z,62.89
2023-04-08T07:19:19.977Z,62.92
2023-04-08T07:21:46.553Z,62.77
2023-04-08T07:24:13.139Z,62.67
2023-04-08T07:26:39.764Z,62.71
2023-04-08T07:29:06.378Z,62.27
2023-04-08T07:31:33.357Z,62.01
2023-04-08T07:34:00.044Z,61.66
2023-04-08T07:36:26.739Z,60.96
2023-04-08T07:38:53.327Z,59.76
2023-04-08T07:41:20.205Z,59.48
2023-04-08T07:43:47.304Z,59.49
2023-04-08T07:46:14.002Z,57.57
2023-04-08T07:48:40.667Z,58.00
2023-04-08T07:51:11.036Z,55.91
2023-04-08T07:53:39.673Z,55.25
2023-04-08T07:56:13.989Z,55.37
2023-04-08T07:58:40.853Z,55.13
2023-04-08T08:01:21.458Z,55.37
2023-04-08T08:03:49.776Z,56.09
2023-04-08T08:06:16.675Z,56.80
2023-04-08T08:08:43.601Z,57.44
2023-04-08T08:11:10.309Z,58.06
2023-04-08T08:13:38.178Z,58.42
2023-04-08T08:16:04.936Z,58.56
2023-04-08T08:18:31.607Z,58.98
2023-04-08T08:20:58.185Z,58.66
2023-04-08T08:23:24.769Z,58.38
2023-04-08T08:25:59.735Z,58.38
2023-04-08T08:28:27.026Z,58.54
2023-04-08T08:30:53.737Z,58.96
2023-04-08T08:33:20.639Z,59.21
2023-04-08T08:35:47.256Z,59.48
2023-04-08T08:38:13.865Z,59.61
2023-04-08T08:40:40.574Z,59.86
2023-04-08T08:43:07.364Z,60.29
2023-04-08T08:45:33.928Z,60.52
2023-04-08T08:48:00.749Z,60.37
2023-04-08T08:50:28.074Z,60.03
2023-04-08T08:52:54.680Z,59.99
2023-04-08T08:55:39.375Z,60.55
2023-04-08T08:58:08.685Z,61.61
2023-04-08T09:00:36.544Z,60.98
2023-04-08T09:03:23.198Z,60.67
2023-04-08T09:05:58.172Z,60.72
2023-04-08T09:08:35.970Z,60.04
2023-04-08T09:11:18.551Z,60.16
2023-04-08T09:13:46.631Z,61.04
2023-04-08T09:16:17.548Z,60.62
2023-04-08T09:18:45.741Z,60.24
2023-04-08T09:21:14.374Z,60.83
2023-04-08T09:23:48.272Z,60.56
2023-04-08T09:26:19.974Z,60.64
2023-04-08T09:29:11.045Z,60.96
2023-04-08T09:31:45.366Z,61.45
2023-04-08T09:34:14.216Z,61.66
2023-04-08T09:36:41.124Z,62.01
2023-04-08T09:39:07.698Z,62.03
2023-04-08T09:41:35.737Z,62.08
2023-04-08T09:44:07.757Z,61.71
2023-04-08T09:46:49.505Z,61.68
2023-04-08T09:49:33.891Z,62.01
2023-04-08T09:52:18.818Z,61.49
2023-04-08T09:55:05.193Z,61.44
2023-04-08T09:57:40.418Z,61.13
2023-04-08T10:00:13.554Z,61.42
2023-04-08T10:03:06.666Z,61.13
2023-04-08T10:05:37.608Z,60.44
2023-04-08T10:08:06.040Z,61.26
2023-04-08T10:10:35.159Z,61.38
2023-04-08T10:13:02.342Z,61.99
2023-04-08T10:15:33.619Z,61.61
2023-04-08T10:18:02.981Z,61.01
2023-04-08T10:20:35.726Z,59.81
2023-04-08T10:23:05.766Z,61.26
2023-04-08T10:25:39.781Z,60.37
2023-04-08T10:28:15.470Z,59.88
2023-04-08T10:30:51.990Z,59.59
2023-04-08T10:33:31.195Z,58.73
2023-04-08T10:36:08.062Z,56.66
2023-04-08T10:38:34.864Z,57.69
2023-04-08T10:41:01.745Z,57.32
2023-04-08T10:43:33.565Z,57.25
2023-04-08T10:46:00.409Z,57.80
2023-04-08T10:48:27.036Z,57.67
2023-04-08T10:51:01.460Z,57.55
2023-04-08T10:53:35.810Z,56.55
2023-04-08T10:56:06.062Z,56.68
2023-04-08T10:58:33.585Z,57.65
2023-04-08T11:01:07.891Z,57.39
2023-04-08T11:03:36.316Z,57.98
2023-04-08T11:06:03.696Z,58.04
2023-04-08T11:08:34.523Z,57.05
2023-04-08T11:11:01.844Z,57.28
2023-04-08T11:13:28.771Z,57.50
2023-04-08T11:15:56.891Z,56.82
2023-04-08T11:18:23.570Z,57.41
2023-04-08T11:20:53.357Z,58.17
2023-04-08T11:23:20.241Z,58.55
2023-04-08T11:25:47.353Z,58.85
2023-04-08T11:28:14.677Z,58.89
2023-04-08T11:30:42.116Z,58.87
2023-04-08T11:33:09.136Z,59.08
2023-04-08T11:35:40.258Z,59.51
2023-04-08T11:38:08.097Z,59.39
2023-04-08T11:40:34.790Z,59.50
2023-04-08T11:43:10.066Z,59.08
2023-04-08T11:45:40.396Z,58.85
2023-04-08T11:48:14.571Z,59.36
2023-04-08T11:50:42.680Z,59.75
2023-04-08T11:53:22.456Z,59.41
2023-04-08T11:55:49.288Z,59.44
2023-04-08T11:58:15.928Z,59.48
2023-04-08T12:00:42.826Z,58.43
2023-04-08T12:03:10.358Z,58.66
2023-04-08T12:05:37.168Z,58.84
2023-04-08T12:08:03.865Z,59.06
2023-04-08T12:10:30.540Z,58.97
2023-04-08T12:12:57.130Z,58.86
2023-04-08T12:15:23.832Z,58.46
2023-04-08T12:17:50.448Z,57.87
2023-04-08T12:20:17.144Z,57.87
2023-04-08T12:22:43.765Z,57.95
2023-04-08T12:25:10.674Z,57.96
2023-04-08T12:27:37.309Z,58.14
2023-04-08T12:30:05.087Z,57.71
2023-04-08T12:32:31.838Z,57.47
2023-04-08T12:34:58.494Z,57.43
2023-04-08T12:37:25.099Z,57.27
2023-04-08T12:39:51.687Z,57.88
2023-04-08T12:42:18.328Z,57.55
2023-04-08T12:44:44.892Z,58.03
2023-04-08T12:47:11.533Z,57.99
2023-04-08T12:52:07.747Z,58.53
2023-04-08T12:54:34.311Z,58.56
2023-04-08T12:57:00.972Z,58.80
2023-04-08T12:59:27.531Z,59.20
2023-04-08T13:01:54.215Z,59.30
2023-04-08T13:04:20.943Z,59.49
2023-04-08T13:06:47.532Z,59.75
2023-04-08T13:09:14.084Z,59.66
2023-04-08T13:11:40.779Z,59.76
2023-04-08T13:14:07.332Z,59.82
2023-04-08T13:16:34.140Z,60.07
2023-04-08T13:19:00.824Z,60.30
2023-04-08T13:21:27.770Z,60.37
2023-04-08T13:23:54.378Z,60.37
2023-04-08T13:26:21.026Z,60.46
2023-04-08T13:28:56.592Z,60.68
2023-04-08T13:31:24.764Z,60.76
2023-04-08T13:33:51.514Z,61.12
2023-04-08T13:36:18.167Z,61.26
2023-04-08T13:38:44.782Z,61.69
2023-04-08T13:41:11.524Z,61.72
2023-04-08T13:43:38.063Z,61.91
2023-04-08T13:46:04.854Z,61.92
2023-04-08T13:48:31.572Z,62.04
2023-04-08T13:50:58.146Z,61.91
2023-04-08T13:53:24.757Z,61.93
2023-04-08T13:55:51.307Z,62.07
2023-04-08T13:58:23.814Z,62.36
2023-04-08T14:00:51.913Z,62.60
2023-04-08T14:03:19.252Z,62.64
2023-04-08T14:05:46.289Z,62.48
2023-04-08T14:08:12.831Z,62.19
2023-04-08T14:10:39.666Z,62.52
2023-04-08T14:13:06.248Z,62.56
2023-04-08T14:15:33.089Z,62.82
2023-04-08T14:17:59.785Z,62.59
2023-04-08T14:20:26.457Z,63.03
2023-04-08T14:22:53.021Z,63.15
2023-04-08T14:25:19.608Z,63.00
2023-04-08T14:27:57.200Z,63.22
2023-04-08T14:30:25.468Z,63.40
2023-04-08T14:32:52.120Z,63.42
2023-04-08T14:35:19.045Z,62.95
2023-04-08T14:37:45.729Z,62.79
2023-04-08T14:40:12.642Z,62.99
2023-04-08T14:42:39.256Z,63.13
2023-04-08T14:45:06.383Z,62.88
2023-04-08T14:47:33.025Z,62.99
2023-04-08T14:49:59.689Z,63.01
2023-04-08T14:52:26.494Z,62.98
2023-04-08T14:54:53.179Z,63.38
2023-04-08T14:57:19.808Z,63.50
2023-04-08T14:59:46.418Z,63.46
2023-04-08T15:02:13.206Z,63.43
2023-04-08T15:04:39.972Z,63.18
2023-04-08T15:07:06.656Z,63.36
2023-04-08T15:09:33.510Z,62.98
2023-04-08T15:12:00.144Z,63.08
2023-04-08T15:14:27.515Z,62.85
2023-04-08T15:16:54.209Z,62.72
2023-04-08T15:19:21.060Z,62.78
2023-04-08T15:21:47.789Z,62.43
2023-04-08T15:24:14.449Z,62.50
2023-04-08T15:26:41.219Z,62.41
2023-04-08T15:29:07.979Z,62.62
2023-04-08T15:31:34.774Z,62.48
2023-04-08T15:34:01.497Z,62.31
2023-04-08T15:36:30.024Z,62.21
2023-04-08T15:38:56.879Z,62.35
2023-04-08T15:41:23.575Z,62.18
2023-04-08T15:43:50.206Z,62.45
2023-04-08T15:46:23.744Z,62.32
2023-04-08T15:48:51.034Z,62.29
2023-04-08T15:51:18.020Z,62.10
2023-04-08T15:53:44.721Z,61.78
2023-04-08T15:56:15.075Z,61.56
2023-04-08T15:58:42.381Z,61.58
2023-04-08T16:01:09.423Z,61.66
2023-04-08T16:03:36.171Z,61.82
2023-04-08T16:06:03.054Z,61.95
2023-04-08T16:08:29.996Z,61.79
2023-04-08T16:11:00.550Z,62.07
2023-04-08T16:13:27.191Z,61.95
2023-04-08T16:15:53.847Z,62.01
2023-04-08T16:18:20.507Z,62.08
2023-04-08T16:20:47.097Z,62.35
2023-04-08T16:23:13.851Z,62.19
2023-04-08T16:25:40.502Z,62.22
2023-04-08T16:28:07.210Z,62.23
2023-04-08T16:30:33.897Z,62.36
2023-04-08T16:33:00.507Z,62.60
2023-04-08T16:35:27.169Z,62.68
2023-04-08T16:37:53.699Z,62.88
2023-04-08T16:40:20.262Z,62.99
2023-04-08T16:42:46.970Z,63.04
2023-04-08T16:45:14.106Z,63.11
2023-04-08T16:47:40.844Z,63.26
2023-04-08T16:50:10.706Z,63.36
2023-04-08T16:52:37.455Z,63.28
2023-04-08T16:55:04.214Z,63.45
2023-04-08T16:57:30.791Z,63.19
2023-04-08T16:59:57.558Z,63.16
2023-04-08T17:02:24.320Z,63.28
2023-04-08T17:04:51.098Z,63.20
2023-04-08T17:07:17.733Z,62.91
2023-04-08T17:09:44.390Z,63.00
2023-04-08T17:12:10.997Z,62.74
2023-04-08T17:14:37.578Z,62.67
2023-04-08T17:17:04.161Z,62.81
2023-04-08T17:19:30.711Z,62.54
2023-04-08T17:21:57.276Z,62.65
2023-04-08T17:24:23.918Z,62.66
2023-04-08T17:26:50.535Z,62.55
2023-04-08T17:29:17.087Z,62.64
2023-04-08T17:31:43.858Z,62.47
2023-04-08T17:34:10.485Z,62.67
2023-04-08T17:36:37.131Z,62.90
2023-04-08T17:39:03.714Z,62.94
2023-04-08T17:41:39.721Z,63.03
2023-04-08T17:44:07.393Z,63.10
2023-04-08T17:46:34.034Z,63.13
2023-04-08T17:49:00.660Z,63.05
2023-04-08T17:51:27.296Z,63.05
2023-04-08T17:53:53.912Z,63.41
2023-04-08T17:56:20.485Z,63.50
2023-04-08T17:58:47.064Z,63.29
2023-04-08T18:01:13.757Z,63.63
2023-04-08T18:03:40.478Z,63.51
2023-04-08T18:06:08.114Z,63.43
2023-04-08T18:08:34.926Z,63.37
2023-04-08T18:11:07.807Z,63.83
2023-04-08T18:13:34.407Z,63.30
2023-04-08T18:16:00.975Z,63.40
2023-04-08T18:18:27.737Z,63.56
2023-04-08T18:20:54.376Z,63.62
2023-04-08T18:23:21.019Z,63.74
2023-04-08T18:25:47.853Z,63.83
2023-04-08T18:28:14.427Z,63.75
2023-04-08T18:30:41.340Z,63.62
2023-04-08T18:33:08.034Z,63.64
2023-04-08T18:35:34.730Z,63.57
2023-04-08T18:38:01.295Z,63.63
2023-04-08T18:40:28.114Z,63.32
2023-04-08T18:42:54.806Z,63.36
2023-04-08T18:45:21.495Z,63.09
2023-04-08T18:47:48.096Z,63.21
2023-04-08T18:50:14.707Z,63.21
2023-04-08T18:52:41.337Z,63.25
2023-04-08T18:55:08.040Z,63.14
2023-04-08T18:57:34.766Z,63.22
2023-04-08T19:00:01.356Z,63.35
2023-04-08T19:02:28.082Z,63.49
2023-04-08T19:04:54.720Z,63.22
2023-04-08T19:07:21.391Z,63.52
2023-04-08T19:09:48.119Z,63.40
2023-04-08T19:12:15.219Z,63.42
2023-04-08T19:14:41.792Z,63.60
2023-04-08T19:17:08.410Z,63.58
2023-04-08T19:19:35.175Z,63.39
2023-04-08T19:22:01.977Z,63.32
2023-04-08T19:24:28.521Z,63.57
2023-04-08T19:26:55.073Z,63.45
2023-04-08T19:29:21.860Z,63.29
2023-04-08T19:31:48.463Z,63.30
2023-04-08T19:34:15.076Z,63.42
2023-04-08T19:36:41.681Z,63.26
2023-04-08T19:39:08.291Z,63.13
2023-04-08T19:41:34.996Z,63.20
2023-04-08T19:44:01.622Z,63.55
2023-04-08T19:46:29.080Z,63.58
2023-04-08T19:48:55.711Z,63.60
2023-04-08T19:51:22.344Z,63.76
2023-04-08T19:53:49.265Z,63.68
2023-04-08T19:56:16.758Z,63.63
2023-04-08T19:58:43.323Z,63.55
2023-04-08T20:01:09.972Z,63.58
2023-04-08T20:03:36.747Z,63.50
2023-04-08T20:06:03.421Z,63.57
2023-04-08T20:08:32.940Z,63.52
2023-04-08T20:10:59.500Z,63.71
2023-04-08T20:13:26.126Z,63.79
2023-04-08T20:15:52.934Z,63.59
2023-04-08T20:18:19.686Z,63.44
2023-04-08T20:20:46.295Z,63.72
2023-04-08T20:23:12.879Z,63.71
2023-04-08T20:25:39.600Z,63.60
2023-04-08T20:28:06.201Z,63.62
2023-04-08T20:30:32.758Z,64.01
2023-04-08T20:32:59.402Z,64.02
2023-04-08T20:35:26.364Z,64.30
2023-04-08T20:37:52.957Z,64.19
2023-04-08T20:40:19.684Z,64.11
2023-04-08T20:42:46.466Z,63.96
2023-04-08T20:45:13.120Z,63.85
2023-04-08T20:47:39.774Z,63.97
2023-04-08T20:50:07.192Z,64.13
2023-04-08T20:52:33.826Z,64.01
2023-04-08T20:55:00.686Z,64.02
2023-04-08T20:57:27.247Z,63.90
2023-04-08T20:59:53.849Z,63.92
2023-04-08T21:02:20.490Z,63.75
2023-04-08T21:04:47.779Z,63.64
2023-04-08T21:07:14.489Z,63.56
2023-04-08T21:09:41.034Z,63.43
2023-04-08T21:12:07.649Z,63.59
2023-04-08T21:14:34.167Z,63.63
2023-04-08T21:17:00.893Z,63.63
2023-04-08T21:19:27.552Z,63.75
2023-04-08T21:21:54.185Z,63.99
2023-04-08T21:24:20.811Z,63.88
2023-04-08T21:26:47.366Z,63.95
2023-04-08T21:29:14.069Z,63.87
2023-04-08T21:31:40.637Z,63.83
2023-04-08T21:34:07.293Z,64.06
2023-04-08T21:36:34.033Z,63.72
2023-04-08T21:39:00.648Z,63.67
2023-04-08T21:41:28.445Z,63.76
2023-04-08T21:43:56.887Z,63.75
2023-04-08T21:46:23.725Z,63.75
2023-04-08T21:48:50.606Z,63.75
2023-04-08T21:51:17.575Z,63.73
2023-04-08T21:53:44.721Z,63.85
2023-04-08T21:56:11.280Z,63.93
2023-04-08T21:58:37.823Z,64.01
2023-04-08T22:01:04.577Z,64.20
2023-04-08T22:03:31.293Z,64.04
2023-04-08T22:05:58.061Z,63.97
2023-04-08T22:08:24.729Z,63.93
2023-04-08T22:10:51.297Z,63.65
2023-04-08T22:13:17.906Z,63.67
2023-04-08T22:15:44.460Z,63.71
2023-04-08T22:18:11.040Z,63.54
2023-04-08T22:20:37.598Z,63.61
2023-04-08T22:23:04.178Z,63.55
2023-04-08T22:25:30.771Z,63.49
2023-04-08T22:27:57.418Z,63.39
2023-04-08T22:30:24.134Z,63.25
2023-04-08T22:32:50.713Z,63.20
2023-04-08T22:35:17.348Z,63.05
2023-04-08T22:37:43.947Z,62.97
2023-04-08T22:40:10.679Z,63.05
2023-04-08T22:42:37.276Z,62.82
2023-04-08T22:45:04.096Z,62.92
2023-04-08T22:47:30.695Z,62.92
2023-04-08T22:49:57.828Z,62.95
2023-04-08T22:52:24.443Z,63.12
2023-04-08T22:54:50.998Z,63.19
2023-04-08T22:57:17.608Z,63.22
2023-04-08T22:59:44.152Z,63.53
2023-04-08T23:02:10.779Z,63.33
2023-04-08T23:04:37.389Z,63.38
2023-04-08T23:07:03.934Z,63.17
2023-04-08T23:09:30.511Z,63.23
2023-04-08T23:11:57.096Z,63.51
2023-04-08T23:14:23.948Z,63.50
2023-04-08T23:16:50.768Z,63.21
2023-04-08T23:19:17.348Z,63.49
2023-04-08T23:21:43.911Z,63.72
2023-04-08T23:24:10.639Z,63.71
2023-04-08T23:26:37.271Z,63.92
2023-04-08T23:29:03.939Z,63.70
2023-04-08T23:31:30.688Z,63.66
2023-04-08T23:33:57.341Z,63.65
2023-04-08T23:36:24.002Z,63.82
2023-04-08T23:38:50.719Z,63.69
2023-04-08T23:41:17.550Z,63.80
2023-04-08T23:43:44.185Z,63.78
2023-04-08T23:46:10.874Z,63.74
2023-04-08T23:48:37.562Z,63.99
2023-04-08T23:51:04.448Z,63.98
2023-04-08T23:53:31.136Z,64.00
2023-04-08T23:56:05.152Z,64.46
2023-04-08T23:58:32.065Z,64.18
